createdAt,value
2022-11-29T00:01:21.606Z,101682.59
2022-11-29T00:05:23.029Z,101690.19
2022-11-29T00:09:24.451Z,101693.34
2022-11-29T00:13:25.873Z,101689.81
2022-11-29T00:17:27.269Z,101689.72
2022-11-29T00:21:28.923Z,101690.81
2022-11-29T00:25:30.400Z,101685.59
2022-11-29T00:29:31.969Z,101680.97
2022-11-29T00:33:33.489Z,101677.75
2022-11-29T00:37:35.136Z,101671.47
2022-11-29T00:41:36.548Z,101673.25
2022-11-29T00:45:38.039Z,101662.53
2022-11-29T00:49:39.526Z,101669.31
2022-11-29T00:53:40.970Z,101667.41
2022-11-29T00:57:42.441Z,101666.72
2022-11-29T01:01:44.278Z,101668.47
2022-11-29T01:05:46.102Z,101674.53
2022-11-29T01:09:47.555Z,101669.44
2022-11-29T01:13:50.426Z,101674.75
2022-11-29T01:17:51.971Z,101672.34
2022-11-29T01:21:53.402Z,101681.94
2022-11-29T01:26:07.137Z,101674.97
2022-11-29T01:30:10.263Z,101684.41
2022-11-29T01:34:11.720Z,101692.25
2022-11-29T01:38:13.247Z,101683.41
2022-11-29T01:42:14.792Z,101690.72
2022-11-29T01:46:16.232Z,101687.19
2022-11-29T01:50:17.908Z,101683.13
2022-11-29T01:54:20.196Z,101680.81
2022-11-29T01:58:22.395Z,101683.78
2022-11-29T02:02:31.129Z,101684.28
2022-11-29T02:06:33.379Z,101689.94
2022-11-29T02:11:19.295Z,101692.31
2022-11-29T02:15:46.249Z,101689.69
2022-11-29T02:20:06.526Z,101691.59
2022-11-29T02:24:26.400Z,101689.59
2022-11-29T02:28:58.322Z,101691.06
2022-11-29T02:33:27.263Z,101687.66
2022-11-29T02:38:00.191Z,101697.78
2022-11-29T02:42:56.204Z,101688.63
2022-11-29T02:47:20.367Z,101703.38
2022-11-29T02:51:49.495Z,101701.13
2022-11-29T02:56:10.222Z,101702.38
2022-11-29T03:00:22.918Z,101704.16
2022-11-29T03:04:43.849Z,101707.66
2022-11-29T03:09:08.606Z,101708.81
2022-11-29T03:13:50.448Z,101700.97
2022-11-29T03:18:19.631Z,101711.72
2022-11-29T03:22:47.432Z,101716.41
2022-11-29T03:26:56.115Z,101708.97
2022-11-29T03:31:24.063Z,101715.34
2022-11-29T03:35:36.309Z,101717.63
2022-11-29T03:40:07.413Z,101718.97
2022-11-29T03:44:19.847Z,101722.16
2022-11-29T03:48:27.082Z,101728.03
2022-11-29T03:52:38.447Z,101728.94
2022-11-29T03:56:40.919Z,101728.88
2022-11-29T04:01:10.762Z,101727.34
2022-11-29T04:05:29.979Z,101736.47
2022-11-29T04:10:03.825Z,101734.94
2022-11-29T04:14:23.702Z,101737.38
2022-11-29T04:18:46.737Z,101742.03
2022-11-29T04:23:25.703Z,101751.16
2022-11-29T04:27:32.940Z,101752.94
2022-11-29T04:31:56.738Z,101754.50
2022-11-29T04:36:17.760Z,101760.91
2022-11-29T04:40:49.592Z,101760.16
2022-11-29T04:45:36.350Z,101765.31
2022-11-29T04:50:11.359Z,101768.53
2022-11-29T04:54:34.992Z,101767.28
2022-11-29T04:58:58.888Z,101763.63
2022-11-29T05:03:11.502Z,101769.09
2022-11-29T05:07:18.637Z,101780.00
2022-11-29T05:11:38.187Z,101779.56
2022-11-29T05:16:03.767Z,101776.44
2022-11-29T05:20:33.674Z,101780.38
2022-11-29T05:24:51.320Z,101777.78
2022-11-29T05:29:07.831Z,101786.94
2022-11-29T05:33:35.029Z,101784.19
2022-11-29T05:37:54.958Z,101787.16
2022-11-29T05:42:24.329Z,101791.41
2022-11-29T05:46:59.446Z,101800.22
2022-11-29T05:51:21.539Z,101807.22
2022-11-29T05:55:46.806Z,101811.22
2022-11-29T05:59:51.091Z,101811.84
2022-11-29T06:04:19.956Z,101811.53
2022-11-29T06:08:34.043Z,101812.00
2022-11-29T06:12:35.961Z,101810.94
2022-11-29T06:17:01.810Z,101806.31
2022-11-29T06:21:33.281Z,101819.94
2022-11-29T06:26:34.077Z,101822.31
2022-11-29T06:31:14.338Z,101822.94
2022-11-29T06:35:15.763Z,101840.50
2022-11-29T06:39:17.524Z,101840.56
2022-11-29T06:43:19.303Z,101842.31
2022-11-29T06:47:39.840Z,101851.75
2022-11-29T06:51:58.909Z,101853.28
2022-11-29T06:56:26.503Z,101859.50
2022-11-29T07:00:50.428Z,101855.41
2022-11-29T07:05:02.805Z,101870.06
2022-11-29T07:09:31.299Z,101863.03
2022-11-29T07:13:32.973Z,101867.78
2022-11-29T07:17:42.531Z,101867.50
2022-11-29T07:22:06.885Z,101874.34
2022-11-29T07:26:18.947Z,101872.81
2022-11-29T07:30:23.995Z,101882.31
2022-11-29T07:35:08.380Z,101895.25
2022-11-29T07:39:43.710Z,101886.75
2022-11-29T07:44:03.841Z,101893.44
2022-11-29T07:48:06.884Z,101901.53
2022-11-29T07:52:12.432Z,101904.84
2022-11-29T07:56:16.177Z,101902.75
2022-11-29T08:00:19.583Z,101906.41
2022-11-29T08:04:21.008Z,101906.50
2022-11-29T08:08:22.410Z,101912.06
2022-11-29T08:12:23.821Z,101914.38
2022-11-29T08:16:25.321Z,101916.41
2022-11-29T08:20:26.774Z,101914.28
2022-11-29T08:24:28.443Z,101919.06
2022-11-29T08:28:29.933Z,101919.78
2022-11-29T08:32:31.533Z,101912.88
2022-11-29T08:36:33.494Z,101921.44
2022-11-29T08:40:34.962Z,101925.31
2022-11-29T08:44:36.415Z,101925.81
2022-11-29T08:48:37.958Z,101927.75
2022-11-29T08:53:00.626Z,101926.91
2022-11-29T08:57:37.825Z,101926.91
2022-11-29T09:01:23.664Z,101944.03
2022-11-29T09:05:25.156Z,101936.56
2022-11-29T09:09:26.542Z,101942.88
2022-11-29T09:13:28.072Z,101938.25
2022-11-29T09:17:29.540Z,101943.34
2022-11-29T09:21:33.301Z,101948.31
2022-11-29T09:25:34.749Z,101949.66
2022-11-29T09:29:36.368Z,101951.97
2022-11-29T09:33:39.756Z,101950.06
2022-11-29T09:37:44.494Z,101948.56
2022-11-29T09:41:53.251Z,101955.28
2022-11-29T09:46:23.317Z,101951.34
2022-11-29T09:51:24.104Z,101957.34
2022-11-29T09:55:37.515Z,101955.47
2022-11-29T09:59:43.295Z,101957.94
2022-11-29T10:03:48.577Z,101955.84
2022-11-29T10:08:06.508Z,101951.78
2022-11-29T10:12:23.335Z,101958.94
2022-11-29T10:16:41.865Z,101960.19
2022-11-29T10:20:49.210Z,101971.72
2022-11-29T10:24:57.308Z,101971.06
2022-11-29T10:28:58.771Z,101978.72
2022-11-29T10:33:00.814Z,101976.97
2022-11-29T10:37:02.702Z,101976.84
2022-11-29T10:41:08.764Z,101981.81
2022-11-29T10:45:37.531Z,101980.78
2022-11-29T10:49:40.178Z,101981.97
2022-11-29T10:53:41.840Z,101983.38
2022-11-29T10:58:11.924Z,101983.50
2022-11-29T11:02:19.164Z,101990.59
2022-11-29T11:06:24.242Z,102001.19
2022-11-29T11:10:30.705Z,102002.84
2022-11-29T11:14:37.891Z,102002.28
2022-11-29T11:18:39.426Z,101995.72
2022-11-29T11:22:41.147Z,101992.75
2022-11-29T11:26:44.655Z,102000.56
2022-11-29T11:31:02.264Z,102004.06
2022-11-29T11:35:22.134Z,102003.81
2022-11-29T11:39:24.186Z,102000.69
2022-11-29T11:43:25.711Z,102004.19
2022-11-29T11:47:32.886Z,102007.38
2022-11-29T11:51:34.333Z,101996.94
2022-11-29T11:55:39.367Z,102004.03
2022-11-29T11:59:47.266Z,102001.34
2022-11-29T12:04:24.232Z,102006.94
2022-11-29T12:08:28.577Z,102011.66
2022-11-29T12:12:37.038Z,102011.94
2022-11-29T12:16:40.377Z,102020.50
2022-11-29T12:21:09.339Z,102005.59
2022-11-29T12:25:17.797Z,102011.78
2022-11-29T12:29:22.340Z,102019.56
2022-11-29T12:33:45.118Z,102013.34
2022-11-29T12:38:18.502Z,102014.88
2022-11-29T12:42:41.742Z,102013.88
2022-11-29T12:46:54.321Z,102018.69
2022-11-29T12:51:32.887Z,102021.53
2022-11-29T12:55:54.645Z,102026.34
2022-11-29T13:00:16.878Z,102025.34
2022-11-29T13:04:33.588Z,102029.69
2022-11-29T13:08:48.175Z,102042.38
2022-11-29T13:12:53.862Z,102043.19
2022-11-29T13:17:01.450Z,102044.50
2022-11-29T13:21:15.469Z,102042.09
2022-11-29T13:25:22.953Z,102042.06
2022-11-29T13:29:25.984Z,102044.94
2022-11-29T13:33:34.269Z,102050.94
2022-11-29T13:38:00.216Z,102047.97
2022-11-29T13:42:07.618Z,102047.78
2022-11-29T13:46:21.135Z,102049.06
2022-11-29T13:50:44.831Z,102061.34
2022-11-29T13:54:46.531Z,102063.03
2022-11-29T13:58:53.289Z,102060.69
2022-11-29T14:02:57.320Z,102068.66
2022-11-29T14:07:08.698Z,102068.59
2022-11-29T14:11:12.841Z,102076.66
2022-11-29T14:15:28.282Z,102078.38
2022-11-29T14:19:34.092Z,102074.69
2022-11-29T14:23:41.676Z,102072.56
2022-11-29T14:27:53.483Z,102081.38
2022-11-29T14:31:55.466Z,102081.19
2022-11-29T14:36:07.938Z,102085.59
2022-11-29T14:40:27.260Z,102083.72
2022-11-29T14:44:31.949Z,102084.91
2022-11-29T14:48:34.124Z,102081.06
2022-11-29T14:52:40.341Z,102085.38
2022-11-29T14:56:44.512Z,102088.19
2022-11-29T15:00:48.614Z,102099.34
2022-11-29T15:04:53.084Z,102103.25
2022-11-29T15:09:02.202Z,102109.50
2022-11-29T15:13:04.485Z,102110.63
2022-11-29T15:17:18.341Z,102108.91
2022-11-29T15:21:19.727Z,102112.88
2022-11-29T15:25:28.264Z,102116.34
2022-11-29T15:29:31.327Z,102121.09
2022-11-29T15:33:35.904Z,102123.50
2022-11-29T15:37:37.841Z,102124.69
2022-11-29T15:41:40.937Z,102119.19
2022-11-29T15:45:51.095Z,102129.84
2022-11-29T15:49:54.090Z,102128.94
2022-11-29T15:54:25.295Z,102140.59
2022-11-29T15:58:30.682Z,102140.69
2022-11-29T16:02:35.231Z,102146.91
2022-11-29T16:06:42.416Z,102147.47
2022-11-29T16:10:49.229Z,102154.91
2022-11-29T16:14:56.639Z,102151.44
2022-11-29T16:19:09.752Z,102149.59
2022-11-29T16:23:13.954Z,102150.81
2022-11-29T16:27:15.470Z,102163.75
2022-11-29T16:31:30.979Z,102166.56
2022-11-29T16:35:36.470Z,102170.09
2022-11-29T16:39:38.789Z,102169.78
2022-11-29T16:43:53.582Z,102172.03
2022-11-29T16:47:57.956Z,102167.47
2022-11-29T16:51:59.538Z,102167.66
2022-11-29T16:56:01.109Z,102178.06
2022-11-29T17:00:21.105Z,102173.19
2022-11-29T17:04:23.883Z,102168.78
2022-11-29T17:08:26.201Z,102179.16
2022-11-29T17:12:27.642Z,102171.31
2022-11-29T17:16:29.180Z,102180.25
2022-11-29T17:20:30.703Z,102181.34
2022-11-29T17:24:32.139Z,102183.19
2022-11-29T17:28:33.598Z,102185.81
2022-11-29T17:32:35.670Z,102191.66
2022-11-29T17:36:37.737Z,102189.06
2022-11-29T17:40:39.651Z,102190.28
2022-11-29T17:44:41.250Z,102201.53
2022-11-29T17:48:45.403Z,102205.78
2022-11-29T17:52:46.846Z,102202.69
2022-11-29T17:56:48.522Z,102219.44
2022-11-29T18:00:49.955Z,102220.56
2022-11-29T18:04:51.495Z,102221.66
2022-11-29T18:08:55.719Z,102226.00
2022-11-29T18:12:57.153Z,102229.25
2022-11-29T18:16:58.637Z,102234.84
2022-11-29T18:21:01.643Z,102239.28
2022-11-29T18:25:30.589Z,102242.25
2022-11-29T18:29:24.675Z,102242.66
2022-11-29T18:33:27.063Z,102234.34
2022-11-29T18:38:05.053Z,102238.25
2022-11-29T18:41:50.805Z,102246.34
2022-11-29T18:45:52.277Z,102244.16
2022-11-29T18:49:53.850Z,102242.50
2022-11-29T18:53:55.530Z,102244.59
2022-11-29T18:57:56.936Z,102247.53
2022-11-29T19:01:58.502Z,102251.13
2022-11-29T19:05:59.905Z,102247.97
2022-11-29T19:10:01.513Z,102262.22
2022-11-29T19:14:06.402Z,102255.78
2022-11-29T19:18:07.830Z,102255.63
2022-11-29T19:22:09.276Z,102258.34
2022-11-29T19:26:13.199Z,102259.69
2022-11-29T19:30:16.119Z,102259.84
2022-11-29T19:34:17.588Z,102250.34
2022-11-29T19:38:19.030Z,102257.06
2022-11-29T19:42:22.064Z,102264.34
2022-11-29T19:46:25.904Z,102256.25
2022-11-29T19:50:27.366Z,102258.97
2022-11-29T19:54:28.883Z,102249.75
2022-11-29T19:58:30.291Z,102268.44
2022-11-29T20:02:32.103Z,102276.56
2022-11-29T20:06:33.859Z,102271.66
2022-11-29T20:10:35.442Z,102273.53
2022-11-29T20:14:36.893Z,102277.72
2022-11-29T20:18:43.553Z,102272.66
2022-11-29T20:22:48.760Z,102275.25
2022-11-29T20:26:50.356Z,102284.78
2022-11-29T20:30:52.249Z,102284.47
2022-11-29T20:34:54.139Z,102280.66
2022-11-29T20:39:39.390Z,102281.56
2022-11-29T20:43:50.423Z,102280.59
2022-11-29T20:48:13.033Z,102292.09
2022-11-29T20:52:46.989Z,102284.31
2022-11-29T20:56:48.451Z,102289.16
2022-11-29T21:00:49.899Z,102283.28
2022-11-29T21:04:51.387Z,102288.25
2022-11-29T21:08:53.916Z,102302.38
2022-11-29T21:12:56.043Z,102297.53
2022-11-29T21:16:57.760Z,102299.06
2022-11-29T21:20:59.170Z,102297.16
2022-11-29T21:25:13.968Z,102298.97
2022-11-29T21:29:17.694Z,102295.56
2022-11-29T21:33:19.286Z,102299.69
2022-11-29T21:37:24.937Z,102297.91
2022-11-29T21:41:26.358Z,102297.47
2022-11-29T21:45:27.902Z,102288.72
2022-11-29T21:49:29.328Z,102290.78
2022-11-29T21:53:30.873Z,102290.31
2022-11-29T21:57:32.441Z,102293.22
2022-11-29T22:01:34.030Z,102293.22
2022-11-29T22:05:35.506Z,102299.38
2022-11-29T22:09:37.012Z,102304.03
2022-11-29T22:13:59.452Z,102304.72
2022-11-29T22:18:00.933Z,102304.56
2022-11-29T22:22:05.700Z,102312.63
2022-11-29T22:26:07.705Z,102307.06
2022-11-29T22:30:09.458Z,102312.94
2022-11-29T22:34:11.644Z,102320.88
2022-11-29T22:38:13.196Z,102319.69
2022-11-29T22:42:14.747Z,102316.31
2022-11-29T22:46:27.583Z,102315.63
2022-11-29T22:50:29.076Z,102314.97
2022-11-29T22:54:30.489Z,102319.72
2022-11-29T22:58:32.200Z,102325.50
2022-11-29T23:02:33.717Z,102316.47
2022-11-29T23:06:42.738Z,102321.44
2022-11-29T23:10:44.251Z,102321.09
2022-11-29T23:14:45.990Z,102322.25
2022-11-29T23:18:48.994Z,102318.78
2022-11-29T23:22:50.387Z,102321.34
2022-11-29T23:26:51.937Z,102334.06
2022-11-29T23:30:54.320Z,102327.81
2022-11-29T23:34:55.846Z,102332.28
2022-11-29T23:38:57.367Z,102331.69
2022-11-29T23:42:58.860Z,102326.03
2022-11-29T23:47:00.317Z,102320.75
2022-11-29T23:51:02.022Z,102332.94
2022-11-29T23:55:04.210Z,102327.50
2022-11-29T23:59:05.695Z,102330.56
